KACB/ACB METAR and TAF weather

Enter ICAO airport designator
Station Type Date Time Source
KACB METAR 2019/02/23 16:36 UTC NOAA

KACB 231636Z AUTO 14007G14KT 120V200 10SM OVC090 01/M05 A3017 RMK AO2 T00101051


Station Type Date Time Source
KACB Decoded METAR 2019/02/23 16:36 UTC NOAA

Bellaire, Antrim County Airport, MI, United States (KACB) 44-59-18N 085-11-54W
Feb 23, 2019 - 11:36 AM EST / 2019.02.23 1636 UTC
Wind: from the SE (140 degrees) at 8 MPH (7 KT) gusting to 16 MPH (14 KT) (direction variable):0
Visibility: 10 mile(s):0
Sky conditions: overcast
Temperature: 33.8 F (1.0 C)
Windchill: 26 F (-3 C):1
Dew Point: 22.8 F (-5.1 C)
Relative Humidity: 63%
Pressure (altimeter): 30.17 in. Hg (1021 hPa)
ob: KACB 231636Z AUTO 14007G14KT 120V200 10SM OVC090 01/M05 A3017 RMK AO2 T00101051
cycle: 16

Station Type Date Time Source
KACB TAF UTC NOAA

Error!


Example: see airport list